Time;durP1;ratioP1;P1;durP2;ratioP2;P2;SDS_P1;SDS_P2;PMS_P1;PMS_P2;Temp;Humidity;BMP_temperature;BMP_pressure;BME280_temperature;BME280_humidity;BME280_pressure;Samples;Min_cycle;Max_cycle;Signal;HPM_P1;HPM_P2
2023/09/16 00:00:32;;;;;;;6.30;4.50;;;;;;;15.25;100.00;102134.72;4911552;29;20425;-70
2023/09/16 00:02:58;;;;;;;6.00;4.43;;;;;;;14.55;100.00;102021.19;4923101;29;20267;-70
2023/09/16 00:05:24;;;;;;;5.80;4.17;;;;;;;15.18;100.00;102128.41;4925003;29;20963;-69
2023/09/16 00:07:49;;;;;;;5.80;4.27;;;;;;;14.78;100.00;102052.50;4910592;29;20554;-70
2023/09/16 00:10:14;;;;;;;7.77;4.90;;;;;;;14.56;100.00;102027.44;4911347;29;20189;-69
2023/09/16 00:12:40;;;;;;;5.80;4.37;;;;;;;15.01;100.00;102109.78;4908912;29;20207;-69
2023/09/16 00:15:06;;;;;;;5.87;4.40;;;;;;;14.56;100.00;102032.81;4908483;29;20180;-69
2023/09/16 00:17:33;;;;;;;6.10;4.70;;;;;;;14.47;100.00;102014.03;4923738;29;20191;-70
2023/09/16 00:19:58;;;;;;;7.23;5.23;;;;;;;14.46;100.00;102006.13;4908900;29;21031;-69
2023/09/16 00:22:24;;;;;;;5.30;3.83;;;;;;;14.43;100.00;102012.75;4906364;29;20544;-69
2023/09/16 00:24:49;;;;;;;5.20;4.13;;;;;;;14.54;100.00;102003.31;4918622;29;20231;-69
2023/09/16 00:27:15;;;;;;;6.40;4.83;;;;;;;15.24;100.00;102117.63;4906508;29;20204;-69
2023/09/16 00:29:41;;;;;;;6.93;4.60;;;;;;;15.30;100.00;102113.31;4907440;29;20191;-69
2023/09/16 00:32:06;;;;;;;5.57;4.10;;;;;;;14.48;100.00;102004.91;4923113;29;20233;-70
2023/09/16 00:34:32;;;;;;;7.03;4.30;;;;;;;14.30;100.00;102012.66;4908661;29;20212;-69
2023/09/16 00:36:58;;;;;;;4.93;4.00;;;;;;;15.04;100.00;102125.66;4920740;29;20336;-70
2023/09/16 00:39:26;;;;;;;5.83;4.43;;;;;;;14.16;100.00;102033.28;4907487;29;20243;-70
2023/09/16 00:41:51;;;;;;;5.80;4.10;;;;;;;14.67;100.00;102145.72;4907534;29;20527;-70
2023/09/16 00:44:16;;;;;;;7.70;5.00;;;;;;;14.06;100.00;102031.91;4909629;29;20994;-69
2023/09/16 00:46:42;;;;;;;6.47;4.47;;;;;;;14.50;100.00;102084.88;4911338;29;20180;-70
2023/09/16 00:49:08;;;;;;;5.73;4.20;;;;;;;14.62;100.00;102107.63;4912069;29;20675;-69
2023/09/16 00:51:34;;;;;;;6.87;4.73;;;;;;;14.19;100.00;102040.16;4911476;29;20286;-69
2023/09/16 00:54:01;;;;;;;6.60;4.83;;;;;;;14.88;100.00;102134.03;4920831;29;20942;-69
2023/09/16 00:56:29;;;;;;;8.23;4.50;;;;;;;14.05;100.00;102017.59;4909986;29;20271;-70
2023/09/16 00:58:57;;;;;;;6.30;4.20;;;;;;;14.18;100.00;102003.41;4920761;29;20441;-70
2023/09/16 01:01:24;;;;;;;6.80;4.53;;;;;;;14.96;100.00;102127.66;4908357;29;20440;-69
2023/09/16 01:03:50;;;;;;;6.23;4.57;;;;;;;14.91;100.00;102115.56;4922114;29;20468;-69
2023/09/16 01:06:19;;;;;;;8.50;5.00;;;;;;;14.08;100.00;102005.59;4907875;29;22418;-69
2023/09/16 01:08:46;;;;;;;6.03;4.60;;;;;;;13.82;100.00;102030.44;4905618;29;20488;-69
2023/09/16 01:11:12;;;;;;;7.03;5.10;;;;;;;14.17;100.00;102042.19;4906970;29;20451;-69
2023/09/16 01:13:38;;;;;;;6.90;4.93;;;;;;;13.89;100.00;102026.81;4920996;29;20460;-69
2023/09/16 01:16:36;;;;;;;6.70;5.07;;;;;;;14.72;100.00;102158.59;4908174;29;20276;-69
2023/09/16 01:19:33;;;;;;;6.97;4.97;;;;;;;14.63;100.00;102164.13;4909692;29;20432;-70
2023/09/16 01:22:01;;;;;;;6.67;5.07;;;;;;;13.66;100.00;102059.31;4925259;28;20951;-69
2023/09/16 01:24:26;;;;;;;8.20;4.60;;;;;;;14.64;100.00;102165.81;4904067;29;21020;-70
2023/09/16 01:26:52;;;;;;;7.50;4.63;;;;;;;14.39;100.00;102176.13;4910949;29;20436;-70
2023/09/16 01:29:19;;;;;;;7.07;5.10;;;;;;;13.33;100.00;102040.84;4909108;29;20782;-69
2023/09/16 01:31:46;;;;;;;5.90;4.27;;;;;;;14.06;100.00;102164.97;4910160;29;20239;-70
2023/09/16 01:34:30;;;;;;;6.77;4.97;;;;;;;13.40;100.00;102077.88;4924600;29;20546;-69
2023/09/16 01:36:58;;;;;;;6.60;4.50;;;;;;;14.13;100.00;102214.44;4910007;29;20487;-69
2023/09/16 01:39:25;;;;;;;7.20;5.20;;;;;;;13.55;100.00;102135.28;4925537;29;20450;-69
2023/09/16 01:41:53;;;;;;;6.20;5.00;;;;;;;14.37;100.00;102217.84;4913016;29;20535;-70
2023/09/16 01:44:18;;;;;;;6.17;5.10;;;;;;;14.24;100.00;102200.47;4908839;29;20460;-69
2023/09/16 01:46:44;;;;;;;7.33;5.60;;;;;;;14.05;100.00;102176.78;4909086;29;20463;-69
2023/09/16 01:49:09;;;;;;;6.20;4.40;;;;;;;14.20;100.00;102211.81;4925347;29;20212;-70
2023/09/16 01:51:35;;;;;;;7.17;5.20;;;;;;;13.53;100.00;102069.94;4924034;29;20199;-69
2023/09/16 01:54:00;;;;;;;5.53;4.57;;;;;;;14.24;100.00;102197.78;4912565;29;20585;-69
2023/09/16 01:56:26;;;;;;;6.40;5.03;;;;;;;13.92;100.00;102058.78;4911553;29;20272;-69
2023/09/16 01:58:51;;;;;;;6.43;4.83;;;;;;;13.91;100.00;102057.09;4910293;29;20183;-69
2023/09/16 02:01:16;;;;;;;6.50;4.70;;;;;;;14.42;100.00;102119.06;4924323;29;20240;-69
2023/09/16 02:03:42;;;;;;;6.53;5.40;;;;;;;14.22;100.00;102066.75;4907487;29;20718;-69
2023/09/16 02:06:07;;;;;;;5.93;4.90;;;;;;;14.37;100.00;102107.16;4924773;29;21233;-69
2023/09/16 02:08:33;;;;;;;5.27;4.37;;;;;;;14.06;100.00;102040.88;4909184;29;20221;-69
2023/09/16 02:10:58;;;;;;;6.50;4.70;;;;;;;13.17;100.00;101933.28;4909769;29;20663;-69
2023/09/16 02:13:24;;;;;;;7.30;4.90;;;;;;;13.93;100.00;101994.88;4909274;29;20204;-69
2023/09/16 02:15:49;;;;;;;7.23;4.87;;;;;;;14.34;100.00;102148.88;4909250;29;20251;-70
2023/09/16 02:18:15;;;;;;;7.07;5.30;;;;;;;14.54;100.00;102132.91;4908326;29;20188;-70
2023/09/16 02:20:40;;;;;;;6.00;4.80;;;;;;;13.74;100.00;102029.56;4908063;29;20196;-69
2023/09/16 02:23:06;;;;;;;7.73;5.43;;;;;;;14.01;100.00;102110.75;4908506;29;20213;-69
2023/09/16 02:25:35;;;;;;;5.30;4.50;;;;;;;14.23;100.00;102176.34;4920157;29;20196;-69
2023/09/16 02:28:01;;;;;;;6.97;4.87;;;;;;;14.30;100.00;102190.78;4908839;29;20247;-70
2023/09/16 02:30:26;;;;;;;8.17;5.37;;;;;;;13.39;100.00;102038.44;4920159;29;20994;-69
2023/09/16 02:32:52;;;;;;;7.17;5.20;;;;;;;14.29;100.00;102193.66;4912550;29;20535;-70
2023/09/16 02:35:17;;;;;;;5.50;4.20;;;;;;;14.27;100.00;102215.44;4926324;29;20318;-69
2023/09/16 02:37:43;;;;;;;7.60;5.47;;;;;;;14.29;100.00;102175.63;4925929;29;20219;-70
2023/09/16 02:40:08;;;;;;;7.20;4.87;;;;;;;14.35;100.00;102177.56;4911590;29;20189;-69
2023/09/16 02:42:34;;;;;;;6.60;4.90;;;;;;;14.28;100.00;102146.09;4912013;29;20232;-70
2023/09/16 02:45:00;;;;;;;7.47;5.20;;;;;;;14.51;100.00;102143.22;4924977;29;20727;-70
2023/09/16 02:47:25;;;;;;;6.77;5.30;;;;;;;13.66;100.00;102026.13;4902097;29;20206;-69
2023/09/16 02:49:50;;;;;;;5.73;4.43;;;;;;;13.37;100.00;101979.34;4923025;29;20547;-69
2023/09/16 02:52:16;;;;;;;7.67;5.70;;;;;;;14.12;100.00;102156.13;4911072;29;20693;-69
2023/09/16 02:54:42;;;;;;;6.33;5.07;;;;;;;13.49;100.00;102095.59;4911479;29;20199;-70
2023/09/16 02:57:08;;;;;;;6.40;4.90;;;;;;;14.06;100.00;102148.78;4921716;29;20206;-69
2023/09/16 02:59:33;;;;;;;7.13;5.80;;;;;;;13.69;100.00;102058.94;4910594;29;20926;-69
2023/09/16 03:01:59;;;;;;;7.50;5.13;;;;;;;14.30;100.00;102144.06;4911929;29;20212;-69
2023/09/16 03:04:24;;;;;;;7.00;5.17;;;;;;;14.41;100.00;102165.16;4911057;29;20192;-69
2023/09/16 03:06:50;;;;;;;6.70;5.50;;;;;;;14.36;100.00;102143.28;4922062;29;20216;-69
2023/09/16 03:09:17;;;;;;;8.30;6.27;;;;;;;13.18;100.00;102007.69;4904660;29;20207;-69
2023/09/16 03:11:42;;;;;;;9.53;6.77;;;;;;;13.51;100.00;102094.41;4915021;29;20219;-69
2023/09/16 03:14:08;;;;;;;8.70;6.40;;;;;;;13.99;100.00;102121.72;4906928;29;20550;-69
2023/09/16 03:16:35;;;;;;;5.90;4.73;;;;;;;13.63;100.00;102091.22;4908862;29;20251;-69
2023/09/16 03:19:00;;;;;;;8.90;5.50;;;;;;;13.83;100.00;102130.03;4923280;29;20279;-69
2023/09/16 03:21:26;;;;;;;7.30;5.40;;;;;;;13.84;100.00;102142.50;4908368;29;21301;-69
2023/09/16 03:23:52;;;;;;;7.63;5.87;;;;;;;14.30;100.00;102171.06;4918256;29;21044;-69
2023/09/16 03:26:17;;;;;;;7.90;5.80;;;;;;;13.70;100.00;102092.94;4923430;29;20183;-69
2023/09/16 03:28:47;;;;;;;9.40;6.20;;;;;;;13.70;100.00;102068.69;4923996;29;21386;-69
2023/09/16 03:31:14;;;;;;;7.70;5.60;;;;;;;14.23;100.00;102154.75;4907887;29;20612;-69
2023/09/16 03:33:40;;;;;;;7.50;5.80;;;;;;;14.44;100.00;102197.16;4924233;29;20472;-69
2023/09/16 03:36:06;;;;;;;8.57;6.07;;;;;;;14.47;100.00;102178.72;4906209;29;20441;-69
2023/09/16 03:38:34;;;;;;;7.30;5.90;;;;;;;14.39;100.00;102141.03;4906774;29;20196;-69
2023/09/16 03:41:00;;;;;;;8.17;5.33;;;;;;;14.44;100.00;102160.19;4908964;29;20447;-69
2023/09/16 03:43:26;;;;;;;7.60;5.40;;;;;;;14.33;100.00;102171.50;4897605;29;20456;-69
2023/09/16 03:45:51;;;;;;;6.80;5.60;;;;;;;14.38;100.00;102181.72;4908370;29;20798;-69
2023/09/16 03:48:17;;;;;;;7.20;5.53;;;;;;;13.92;100.00;102146.97;4908622;29;20468;-69
2023/09/16 03:50:42;;;;;;;6.90;5.60;;;;;;;13.85;100.00;102078.59;4907891;29;20275;-69
2023/09/16 03:53:09;;;;;;;7.40;5.53;;;;;;;14.12;100.00;102085.97;4915027;29;20718;-69
2023/09/16 03:55:34;;;;;;;8.53;6.07;;;;;;;14.40;100.00;102123.81;4919770;29;20227;-69
2023/09/16 03:58:02;;;;;;;7.37;5.83;;;;;;;13.75;100.00;102055.47;4919005;29;20930;-69
2023/09/16 04:00:28;;;;;;;7.30;5.80;;;;;;;14.06;100.00;102092.13;4906058;29;20195;-70
2023/09/16 04:02:54;;;;;;;9.83;6.33;;;;;;;13.78;100.00;102044.31;4903670;29;20849;-69
2023/09/16 04:05:19;;;;;;;6.57;5.67;;;;;;;14.30;100.00;102158.38;4904435;29;20547;-69
2023/09/16 04:07:45;;;;;;;8.77;6.43;;;;;;;14.67;100.00;102173.53;4922494;28;20708;-69
2023/09/16 04:10:11;;;;;;;7.80;5.73;;;;;;;14.58;100.00;102173.84;4921474;29;20240;-70
2023/09/16 04:12:37;;;;;;;8.07;5.87;;;;;;;14.53;100.00;102169.03;4909301;29;21011;-69
2023/09/16 04:15:03;;;;;;;8.70;5.63;;;;;;;13.72;100.00;102034.28;4915497;29;20750;-69
2023/09/16 04:17:28;;;;;;;6.43;5.33;;;;;;;14.28;100.00;102167.69;4910367;29;20180;-70
2023/09/16 04:19:54;;;;;;;7.47;5.87;;;;;;;14.32;100.00;102164.44;4907132;29;20192;-69
2023/09/16 04:22:20;;;;;;;7.47;5.90;;;;;;;14.39;100.00;102192.31;4907989;29;20204;-69
2023/09/16 04:24:46;;;;;;;7.87;6.33;;;;;;;14.43;100.00;102203.56;4920737;29;20235;-69
2023/09/16 04:27:11;;;;;;;8.17;6.60;;;;;;;13.85;100.00;102113.66;4921883;29;20199;-69
2023/09/16 04:29:37;;;;;;;7.83;5.90;;;;;;;14.24;100.00;102184.28;4922303;29;20539;-69
2023/09/16 04:32:02;;;;;;;8.15;6.45;;;;;;;13.68;100.00;102123.81;4907670;29;20191;-69
2023/09/16 04:34:28;;;;;;;7.40;5.97;;;;;;;14.04;100.00;102161.63;4908692;29;20437;-69
2023/09/16 04:36:55;;;;;;;7.77;6.63;;;;;;;13.96;100.00;102119.41;4921193;29;20199;-69
2023/09/16 04:39:24;;;;;;;9.27;5.93;;;;;;;13.55;100.00;102087.59;4920640;29;20652;-69
2023/09/16 04:41:53;;;;;;;9.00;6.97;;;;;;;13.92;100.00;102122.69;4920799;29;20952;-70
2023/09/16 04:44:24;;;;;;;7.37;6.10;;;;;;;14.32;100.00;102174.38;4920920;29;20476;-69
2023/09/16 04:46:56;;;;;;;9.40;6.30;;;;;;;14.15;100.00;102139.53;4919609;29;20547;-69
2023/09/16 04:49:22;;;;;;;9.60;7.27;;;;;;;13.54;100.00;102074.31;4920146;29;20444;-69
2023/09/16 04:51:48;;;;;;;9.23;6.40;;;;;;;14.30;100.00;102152.16;4909696;29;21041;-70
2023/09/16 04:54:13;;;;;;;9.40;6.40;;;;;;;13.81;100.00;102082.72;4909015;29;20468;-69
2023/09/16 04:56:39;;;;;;;8.80;6.77;;;;;;;14.41;100.00;102146.25;4920261;29;20190;-69
2023/09/16 04:59:05;;;;;;;7.57;6.20;;;;;;;13.76;100.00;102073.31;4914906;29;20494;-69
2023/09/16 05:01:31;;;;;;;8.57;6.50;;;;;;;14.15;100.00;102136.03;4911670;29;20747;-69
2023/09/16 05:03:57;;;;;;;8.40;7.00;;;;;;;13.67;100.00;102058.28;4926296;29;20468;-69
2023/09/16 05:06:23;;;;;;;7.47;6.63;;;;;;;13.74;100.00;102067.31;4914402;29;20208;-69
2023/09/16 05:08:48;;;;;;;8.93;6.37;;;;;;;13.52;100.00;102057.47;4914085;29;20468;-69
2023/09/16 05:11:14;;;;;;;8.13;6.43;;;;;;;14.27;100.00;102164.16;4910820;29;20196;-69
2023/09/16 05:13:40;;;;;;;7.50;6.60;;;;;;;13.73;100.00;102081.78;4910898;29;20232;-69
2023/09/16 05:16:07;;;;;;;8.63;7.63;;;;;;;14.07;100.00;102126.16;4909586;29;20225;-69
2023/09/16 05:18:33;;;;;;;8.47;6.60;;;;;;;14.23;100.00;102184.44;4917765;29;20865;-69
2023/09/16 05:20:59;;;;;;;10.37;6.80;;;;;;;14.44;100.00;102180.97;4921343;29;20451;-69
2023/09/16 05:23:24;;;;;;;9.97;6.47;;;;;;;14.12;100.00;102147.19;4925162;29;20204;-69
2023/09/16 05:25:50;;;;;;;8.10;6.73;;;;;;;14.43;100.00;102173.88;4921895;29;20196;-69
2023/09/16 05:28:15;;;;;;;7.83;6.63;;;;;;;14.16;100.00;102143.06;4909795;29;20208;-69
2023/09/16 05:30:44;;;;;;;10.00;6.53;;;;;;;13.72;100.00;102101.69;4921771;29;20199;-69
2023/09/16 05:33:13;;;;;;;9.27;7.10;;;;;;;14.12;100.00;102150.72;4922526;29;20220;-69
2023/09/16 05:35:40;;;;;;;9.07;7.40;;;;;;;14.30;100.00;102179.16;4909842;29;20530;-69
2023/09/16 05:38:06;;;;;;;10.70;7.50;;;;;;;14.50;100.00;102184.75;4918199;29;20433;-69
2023/09/16 05:40:32;;;;;;;8.47;6.93;;;;;;;13.59;100.00;102084.50;4910692;29;20474;-69
2023/09/16 05:42:57;;;;;;;7.93;6.57;;;;;;;13.94;100.00;102134.09;4910319;29;20287;-69
2023/09/16 05:45:23;;;;;;;8.40;6.90;;;;;;;14.28;100.00;102186.59;4905982;29;20189;-69
2023/09/16 05:47:49;;;;;;;8.97;7.20;;;;;;;14.20;100.00;102134.41;4908981;29;20272;-69
2023/09/16 05:50:16;;;;;;;10.20;7.60;;;;;;;13.67;100.00;102071.75;4926690;29;20643;-69
2023/09/16 05:52:41;;;;;;;8.37;6.60;;;;;;;14.46;100.00;102168.94;4910912;29;20468;-69
2023/09/16 05:55:07;;;;;;;8.50;6.80;;;;;;;13.63;100.00;102083.97;4909802;29;20448;-69
2023/09/16 05:57:32;;;;;;;9.63;7.97;;;;;;;14.22;100.00;102172.00;4912152;29;20189;-69
2023/09/16 05:59:58;;;;;;;9.03;7.20;;;;;;;13.70;100.00;102092.94;4911118;29;20184;-69
2023/09/16 06:02:23;;;;;;;7.90;6.77;;;;;;;14.56;100.00;102217.25;4921515;28;20236;-69
2023/09/16 06:04:49;;;;;;;8.57;7.17;;;;;;;14.26;100.00;102170.56;4908712;29;20203;-69
2023/09/16 06:07:15;;;;;;;7.47;6.40;;;;;;;14.37;100.00;102197.06;4921533;29;20184;-69
2023/09/16 06:09:41;;;;;;;9.47;7.50;;;;;;;14.54;100.00;102227.41;4924044;29;20440;-69
2023/09/16 06:12:07;;;;;;;8.97;7.00;;;;;;;14.48;100.00;102182.25;4923424;29;20516;-69
2023/09/16 06:14:33;;;;;;;9.50;7.00;;;;;;;14.30;100.00;102149.47;4906942;29;20466;-69
2023/09/16 06:16:58;;;;;;;8.20;6.40;;;;;;;14.67;100.00;102197.84;4917443;29;20451;-69
2023/09/16 06:19:26;;;;;;;8.23;6.57;;;;;;;14.77;100.00;102211.00;4924970;29;20584;-69
2023/09/16 06:21:52;;;;;;;8.80;7.03;;;;;;;14.00;100.00;102099.13;4910168;29;20216;-69
2023/09/16 06:24:17;;;;;;;8.87;6.77;;;;;;;14.10;100.00;102093.41;4911050;29;20515;-69
2023/09/16 06:26:43;;;;;;;8.40;6.87;;;;;;;14.77;100.00;102218.28;4911008;29;20847;-69
2023/09/16 06:29:08;;;;;;;10.63;7.03;;;;;;;14.85;100.00;102227.09;4908867;29;20226;-69
2023/09/16 06:31:34;;;;;;;8.57;6.80;;;;;;;13.91;100.00;102048.16;4906816;29;20534;-69
2023/09/16 06:33:59;;;;;;;8.43;6.90;;;;;;;14.81;100.00;102187.16;4908005;29;20598;-69
2023/09/16 06:36:25;;;;;;;9.00;7.07;;;;;;;15.03;100.00;102206.88;4909996;29;20560;-69
2023/09/16 06:38:50;;;;;;;8.30;6.67;;;;;;;15.13;100.00;102229.03;4921185;29;20202;-69
2023/09/16 06:41:15;;;;;;;7.40;6.23;;;;;;;14.67;100.00;102134.91;4909529;29;20252;-69
2023/09/16 06:43:41;;;;;;;8.10;6.63;;;;;;;14.94;100.00;102186.44;4925791;29;20263;-69
2023/09/16 06:46:06;;;;;;;9.80;7.17;;;;;;;15.17;100.00;102230.28;4912320;29;20184;-69
2023/09/16 06:48:32;;;;;;;7.50;6.60;;;;;;;15.24;100.00;102214.94;4922265;29;20224;-69
2023/09/16 06:50:57;;;;;;;8.73;7.30;;;;;;;15.37;100.00;102203.41;4910968;29;20181;-69
2023/09/16 06:53:23;;;;;;;7.53;6.53;;;;;;;14.63;100.00;102104.72;4907723;29;20220;-69
2023/09/16 06:55:48;;;;;;;9.30;7.07;;;;;;;14.52;100.00;102064.75;4908382;29;20192;-69
2023/09/16 06:58:14;;;;;;;10.33;6.93;;;;;;;15.25;100.00;102167.97;4909424;29;20243;-69
2023/09/16 07:00:39;;;;;;;9.63;7.20;;;;;;;14.97;100.00;102105.00;4921334;29;20208;-69
2023/09/16 07:03:05;;;;;;;9.10;6.67;;;;;;;15.00;100.00;102093.81;4909747;29;20205;-69
2023/09/16 07:05:31;;;;;;;7.50;5.70;;;;;;;14.99;100.00;102073.22;4919761;29;20185;-69
2023/09/16 07:07:56;;;;;;;7.23;6.53;;;;;;;15.45;100.00;102124.84;4905734;29;20491;-69
2023/09/16 07:10:22;;;;;;;6.70;5.80;;;;;;;15.64;100.00;102163.00;4908251;29;20276;-69
2023/09/16 07:12:47;;;;;;;7.40;6.23;;;;;;;15.13;100.00;102102.84;4907166;29;20901;-69
2023/09/16 07:15:14;;;;;;;7.90;6.73;;;;;;;15.58;100.00;102138.44;4902999;29;20196;-69
2023/09/16 07:17:39;;;;;;;8.17;6.20;;;;;;;15.73;100.00;102141.03;4904875;29;20192;-69
2023/09/16 07:20:05;;;;;;;7.90;7.03;;;;;;;15.81;100.00;102135.44;4904831;29;20449;-69
2023/09/16 07:22:30;;;;;;;9.33;6.93;;;;;;;15.60;100.00;102098.50;4911597;29;20251;-69
2023/09/16 07:24:56;;;;;;;8.37;6.77;;;;;;;15.34;100.00;102050.56;4900936;29;20244;-69
2023/09/16 07:27:22;;;;;;;8.37;7.00;;;;;;;16.04;100.00;102140.53;4907702;29;20237;-69
2023/09/16 07:29:47;;;;;;;8.40;6.90;;;;;;;15.57;100.00;102020.47;4903125;29;20192;-70
2023/09/16 07:32:15;;;;;;;8.20;6.83;;;;;;;15.90;100.00;102081.97;4909248;29;20195;-68
2023/09/16 07:34:40;;;;;;;7.17;6.00;;;;;;;16.26;100.00;102114.16;4900146;29;20467;-69
2023/09/16 07:37:05;;;;;;;10.10;6.07;;;;;;;16.26;100.00;102119.56;4902107;29;20445;-69
2023/09/16 07:39:31;;;;;;;8.90;7.50;;;;;;;16.23;100.00;102109.16;4899269;29;20251;-69
2023/09/16 07:41:57;;;;;;;7.40;5.97;;;;;;;16.02;100.00;102077.63;4907305;29;20192;-69
2023/09/16 07:44:22;;;;;;;8.80;7.80;;;;;;;16.29;100.00;102085.84;4909566;29;20208;-69
2023/09/16 07:46:48;;;;;;;7.10;5.97;;;;;;;16.04;100.00;102059.34;4918842;29;20231;-69
2023/09/16 07:49:17;;;;;;;8.23;6.27;;;;;;;16.04;100.00;102044.97;4923826;29;25056;-69
2023/09/16 07:51:45;;;;;;;8.43;7.10;;;;;;;16.26;100.00;102070.81;4924126;29;20576;-69
2023/09/16 07:54:13;;;;;;;7.60;6.00;;;;;;;16.26;100.00;102053.75;4906836;29;20475;-69
2023/09/16 07:56:38;;;;;;;7.20;6.00;;;;;;;16.62;100.00;102120.22;4907009;29;20444;-69
2023/09/16 07:59:04;;;;;;;9.07;6.80;;;;;;;16.60;100.00;102123.13;4909404;29;20962;-70
2023/09/16 08:01:30;;;;;;;8.80;6.20;;;;;;;16.51;100.00;102102.69;4908761;29;20267;-69
2023/09/16 08:03:56;;;;;;;7.90;6.13;;;;;;;16.66;100.00;102106.06;4906855;29;20942;-69
2023/09/16 08:06:21;;;;;;;9.33;7.07;;;;;;;16.63;100.00;102083.94;4907609;29;20725;-69
2023/09/16 08:08:49;;;;;;;8.10;6.70;;;;;;;16.78;100.00;102079.22;4919327;29;20475;-69
2023/09/16 08:11:15;;;;;;;8.57;7.03;;;;;;;16.90;100.00;102096.50;4919933;29;20188;-69
2023/09/16 08:13:40;;;;;;;8.23;6.30;;;;;;;16.88;100.00;102087.72;4904456;29;20480;-69
2023/09/16 08:16:05;;;;;;;7.20;6.40;;;;;;;17.17;100.00;102099.16;4907224;29;20528;-69
2023/09/16 08:18:31;;;;;;;7.50;5.87;;;;;;;17.12;100.00;102112.50;4905960;29;20243;-69
2023/09/16 08:20:56;;;;;;;7.73;5.80;;;;;;;16.90;100.00;102055.00;4906904;29;20224;-69
2023/09/16 08:23:22;;;;;;;9.50;8.17;;;;;;;17.02;100.00;102088.53;4905386;29;20658;-69
2023/09/16 08:25:47;;;;;;;9.70;7.93;;;;;;;16.03;100.00;101899.88;4914627;29;20188;-69
2023/09/16 08:28:13;;;;;;;9.23;7.70;;;;;;;17.28;100.00;102063.25;4915561;29;20216;-69
2023/09/16 08:30:38;;;;;;;7.10;6.40;;;;;;;16.92;100.00;101993.28;4900466;29;20184;-69
2023/09/16 08:33:04;;;;;;;7.57;6.33;;;;;;;17.50;100.00;102063.81;4908156;29;20220;-69
2023/09/16 08:35:30;;;;;;;8.47;6.90;;;;;;;16.68;100.00;101898.06;4905986;29;20203;-69
2023/09/16 08:37:58;;;;;;;7.97;6.30;;;;;;;17.51;100.00;102004.97;4906976;29;20184;-69
2023/09/16 08:40:23;;;;;;;8.13;6.40;;;;;;;17.73;100.00;102035.28;4920620;29;20188;-70
2023/09/16 08:42:58;;;;;;;8.43;5.97;;;;;;;17.64;100.00;102032.00;4899355;29;20476;-69
2023/09/16 08:45:26;;;;;;;5.63;4.60;;;;;;;17.02;100.00;101930.50;4906410;29;20227;-69
2023/09/16 08:47:55;;;;;;;6.97;4.87;;;;;;;17.80;100.00;102031.53;4903965;29;20476;-69
2023/09/16 08:50:21;;;;;;;6.20;4.80;;;;;;;17.09;100.00;101928.59;4924786;29;20422;-69
2023/09/16 08:52:47;;;;;;;7.70;4.97;;;;;;;18.00;100.00;102017.00;4908919;29;20539;-70
2023/09/16 08:55:13;;;;;;;7.70;6.37;;;;;;;18.12;100.00;102004.38;4910202;29;20523;-69
2023/09/16 08:57:44;;;;;;;6.87;5.37;;;;;;;17.97;100.00;101990.31;4922534;29;20271;-69
2023/09/16 09:00:10;;;;;;;6.83;5.80;;;;;;;17.59;100.00;101916.00;4909114;29;20451;-70
2023/09/16 09:02:36;;;;;;;5.80;4.43;;;;;;;18.39;100.00;102012.31;4918371;29;20469;-70
2023/09/16 09:05:06;;;;;;;6.90;5.00;;;;;;;17.70;100.00;101887.31;4902375;29;20920;-70
2023/09/16 09:07:35;;;;;;;8.73;6.90;;;;;;;18.51;100.00;101973.34;4903337;29;20228;-69
2023/09/16 09:10:01;;;;;;;9.13;6.63;;;;;;;18.44;100.00;101950.00;4902909;29;20452;-69
2023/09/16 09:12:27;;;;;;;8.90;6.13;;;;;;;17.82;100.00;101842.19;4902269;29;20443;-69
2023/09/16 09:14:55;;;;;;;7.00;5.00;;;;;;;18.01;100.00;101862.03;4919330;29;20604;-69
2023/09/16 09:17:22;;;;;;;6.90;5.37;;;;;;;17.95;100.00;101859.41;4901732;29;20536;-70
2023/09/16 09:19:48;;;;;;;9.60;7.53;;;;;;;18.74;100.00;101952.84;4901432;29;20456;-69
2023/09/16 09:22:14;;;;;;;8.07;5.80;;;;;;;18.73;100.00;101930.25;4904850;29;20488;-70
2023/09/16 09:24:39;;;;;;;5.40;4.73;;;;;;;18.87;100.00;101944.53;4903172;29;20452;-70
2023/09/16 09:27:06;;;;;;;7.20;5.63;;;;;;;19.01;100.00;101955.25;4897530;29;20196;-70
2023/09/16 09:29:32;;;;;;;6.70;5.13;;;;;;;18.87;100.00;101935.56;4902974;29;20200;-70
2023/09/16 09:31:57;;;;;;;8.10;5.13;;;;;;;18.36;100.00;101850.59;4896789;29;20456;-70
2023/09/16 09:34:27;;;;;;;7.20;5.90;;;;;;;19.06;100.00;101929.03;4904547;29;20220;-70
2023/09/16 09:36:52;;;;;;;8.20;6.80;;;;;;;19.15;100.00;101934.97;4917181;29;20211;-70
2023/09/16 09:39:18;;;;;;;6.10;5.23;;;;;;;18.56;100.00;101842.22;4907297;29;21171;-70
2023/09/16 09:41:46;;;;;;;5.90;5.00;;;;;;;19.27;100.00;101959.53;4909085;29;20195;-70
2023/09/16 09:44:13;;;;;;;6.73;5.10;;;;;;;19.11;100.00;101953.66;4911531;29;20203;-70
2023/09/16 09:46:40;;;;;;;6.00;5.27;;;;;;;19.28;100.00;101966.63;4912519;29;20431;-70
2023/09/16 09:49:06;;;;;;;6.00;4.20;;;;;;;19.44;100.00;101976.88;4926315;29;20559;-70
2023/09/16 09:51:32;;;;;;;5.80;4.60;;;;;;;18.58;100.00;101858.31;4913125;29;20432;-70
2023/09/16 09:53:58;;;;;;;9.30;6.97;;;;;;;18.52;100.00;101801.09;4912626;29;20460;-70
2023/09/16 09:56:23;;;;;;;6.40;5.13;;;;;;;18.92;100.00;101840.56;4913043;29;20439;-70
2023/09/16 09:58:50;;;;;;;6.00;5.10;;;;;;;19.47;100.00;101945.63;4911060;29;20187;-70
2023/09/16 10:01:16;;;;;;;6.67;5.03;;;;;;;19.46;100.00;101946.69;4911622;29;20212;-70
2023/09/16 10:03:50;;;;;;;5.73;4.63;;;;;;;19.48;100.00;101942.69;4925391;29;20499;-70
2023/09/16 10:06:18;;;;;;;7.70;6.43;;;;;;;19.47;100.00;101908.41;4911687;29;20267;-70
2023/09/16 10:08:44;;;;;;;8.20;6.40;;;;;;;19.59;100.00;101898.38;4909518;29;20559;-70
2023/09/16 10:11:10;;;;;;;6.20;5.27;;;;;;;19.12;100.00;101843.84;4925807;29;20433;-70
2023/09/16 10:13:36;;;;;;;6.27;5.50;;;;;;;19.77;100.00;101926.59;4910197;29;20223;-70
2023/09/16 10:16:01;;;;;;;9.20;4.40;;;;;;;19.72;100.00;101935.44;4911532;29;20951;-70
2023/09/16 10:18:28;;;;;;;7.90;5.53;;;;;;;19.32;100.00;101873.44;4910746;29;20511;-70
2023/09/16 10:20:54;;;;;;;6.57;5.20;;;;;;;19.22;100.00;101826.13;4911387;29;20188;-70
2023/09/16 10:23:22;;;;;;;6.17;5.27;;;;;;;19.35;100.00;101851.22;4911448;29;20971;-70
2023/09/16 10:25:48;;;;;;;6.80;4.50;;;;;;;19.23;100.00;101787.78;4923427;29;20928;-70
2023/09/16 10:28:13;;;;;;;6.60;4.20;;;;;;;19.79;100.00;101887.19;4911362;29;20472;-70
2023/09/16 10:30:39;;;;;;;6.83;5.43;;;;;;;19.34;100.00;101792.44;4912953;29;20184;-69
2023/09/16 10:33:06;;;;;;;5.97;4.37;;;;;;;20.17;100.00;101898.69;4921873;29;20242;-70
2023/09/16 10:35:42;;;;;;;5.30;4.60;;;;;;;19.58;100.00;101811.50;4911869;29;20194;-70
2023/09/16 10:38:10;;;;;;;5.50;4.20;;;;;;;20.06;100.00;101886.72;4903906;29;20511;-70
2023/09/16 10:40:37;;;;;;;4.90;3.57;;;;;;;20.05;100.00;101869.56;4910209;29;20477;-70
2023/09/16 10:43:03;;;;;;;7.00;5.73;;;;;;;19.48;100.00;101765.84;4925409;29;20986;-70
2023/09/16 10:45:29;;;;;;;6.00;4.07;;;;;;;20.05;100.00;101836.06;4911832;29;20835;-70
2023/09/16 10:47:55;;;;;;;6.27;4.40;;;;;;;20.55;100.00;101862.78;4917106;29;20595;-70
2023/09/16 10:50:25;;;;;;;7.10;4.07;;;;;;;20.53;100.00;101854.84;4907717;29;20196;-70
2023/09/16 10:53:05;;;;;;;5.00;3.90;;;;;;;20.53;100.00;101854.84;4909024;29;20212;-70
2023/09/16 10:55:52;;;;;;;4.80;3.83;;;;;;;20.74;100.00;101852.53;4905725;29;20948;-70
2023/09/16 10:58:46;;;;;;;5.13;3.57;;;;;;;20.86;100.00;101852.47;4906777;29;20475;-70
2023/09/16 11:01:18;;;;;;;6.40;4.30;;;;;;;20.17;100.00;101727.09;4902970;29;20440;-70
2023/09/16 11:03:50;;;;;;;5.43;3.93;;;;;;;20.95;100.00;101818.31;4905243;29;20495;-70
2023/09/16 11:06:16;;;;;;;4.20;3.30;;;;;;;20.46;100.00;101706.16;4907889;29;20516;-70
2023/09/16 11:08:41;;;;;;;6.03;4.47;;;;;;;21.06;100.00;101805.69;4906080;29;20960;-70
2023/09/16 11:11:07;;;;;;;4.60;3.30;;;;;;;20.60;100.00;101706.69;4912331;29;20425;-70
2023/09/16 11:13:33;;;;;;;5.37;3.97;;;;;;;21.04;100.00;101756.03;4910459;29;20208;-70